createdAt,value
2018-06-13T00:01:21.106Z,5.50
2018-06-13T00:03:50.724Z,6.07
2018-06-13T00:06:20.845Z,5.30
2018-06-13T00:08:50.431Z,4.40
2018-06-13T00:11:20.229Z,4.43
2018-06-13T00:13:49.964Z,4.50
2018-06-13T00:16:19.655Z,4.67
2018-06-13T00:18:49.283Z,4.40
2018-06-13T00:21:18.974Z,6.53
2018-06-13T00:23:48.798Z,6.80
2018-06-13T00:26:18.486Z,5.43
2018-06-13T00:28:48.204Z,3.33
2018-06-13T00:31:17.905Z,6.23
2018-06-13T00:33:47.742Z,4.53
2018-06-13T00:36:17.338Z,7.23
2018-06-13T00:38:47.104Z,3.83
2018-06-13T00:41:16.749Z,3.47
2018-06-13T00:43:46.361Z,4.03
2018-06-13T00:46:15.920Z,4.27
2018-06-13T00:48:45.566Z,5.27
2018-06-13T00:51:15.181Z,3.37
2018-06-13T00:53:44.760Z,5.03
2018-06-13T00:56:25.579Z,3.87
2018-06-13T00:58:55.420Z,3.90
2018-06-13T01:01:25.374Z,4.77
2018-06-13T01:03:55.152Z,4.03
2018-06-13T01:06:25.029Z,6.60
2018-06-13T01:08:54.743Z,4.40
2018-06-13T01:11:24.462Z,3.77
2018-06-13T01:13:54.082Z,5.10
2018-06-13T01:16:23.645Z,5.30
2018-06-13T01:18:53.312Z,4.33
2018-06-13T01:21:22.866Z,5.87
2018-06-13T01:23:52.486Z,6.10
2018-06-13T01:26:22.036Z,7.77
2018-06-13T01:28:51.656Z,6.03
2018-06-13T01:31:21.339Z,6.53
2018-06-13T01:33:50.939Z,6.60
2018-06-13T01:36:28.231Z,6.87
2018-06-13T01:38:58.214Z,3.87
2018-06-13T01:41:28.397Z,5.03
2018-06-13T01:43:58.003Z,5.63
2018-06-13T01:46:27.889Z,9.70
2018-06-13T01:48:57.774Z,5.93
2018-06-13T01:51:27.432Z,5.70
2018-06-13T01:53:57.170Z,6.73
2018-06-13T01:56:26.916Z,10.90
2018-06-13T01:58:56.873Z,9.67
2018-06-13T02:01:26.438Z,5.07
2018-06-13T02:03:56.053Z,5.63
2018-06-13T02:06:25.786Z,5.30
2018-06-13T02:08:55.423Z,9.13
2018-06-13T02:11:25.061Z,9.03
2018-06-13T02:13:54.632Z,6.53
2018-06-13T02:16:24.198Z,9.93
2018-06-13T02:18:53.800Z,5.47
2018-06-13T02:21:23.340Z,7.57
2018-06-13T02:23:52.967Z,9.70
2018-06-13T02:26:22.545Z,5.77
2018-06-13T02:28:52.250Z,7.33
2018-06-13T02:31:21.834Z,7.63
2018-06-13T02:33:51.448Z,7.90
2018-06-13T02:36:21.013Z,5.37
2018-06-13T02:38:50.975Z,6.00
2018-06-13T02:41:20.583Z,6.60
2018-06-13T02:43:50.289Z,5.83
2018-06-13T02:46:19.907Z,10.07
2018-06-13T02:48:49.540Z,7.03
2018-06-13T02:51:19.178Z,9.67
2018-06-13T02:53:48.895Z,7.67
2018-06-13T02:56:18.639Z,8.03
2018-06-13T02:58:49.540Z,9.53
2018-06-13T03:01:19.968Z,7.23
2018-06-13T03:03:49.906Z,6.90
2018-06-13T03:06:19.592Z,9.47
2018-06-13T03:08:49.039Z,8.23
2018-06-13T03:11:18.733Z,8.93
2018-06-13T03:13:48.933Z,9.03
2018-06-13T03:16:18.595Z,6.53
2018-06-13T03:18:48.398Z,10.30
2018-06-13T03:21:18.368Z,6.47
2018-06-13T03:23:48.286Z,5.87
2018-06-13T03:26:18.101Z,6.93
2018-06-13T03:28:47.775Z,6.77
2018-06-13T03:31:17.784Z,7.97
2018-06-13T03:33:48.138Z,10.33
2018-06-13T03:36:17.924Z,8.33
2018-06-13T03:38:47.502Z,7.20
2018-06-13T03:41:17.249Z,9.90
2018-06-13T03:43:46.856Z,5.13
2018-06-13T03:46:16.647Z,6.97
2018-06-13T03:48:46.289Z,6.27
2018-06-13T03:51:22.704Z,5.97
2018-06-13T03:53:52.365Z,11.67
2018-06-13T03:56:22.032Z,6.30
2018-06-13T03:58:51.645Z,8.83
2018-06-13T04:01:21.343Z,6.60
2018-06-13T04:03:51.717Z,6.97
2018-06-13T04:06:21.382Z,13.13
2018-06-13T04:08:51.156Z,8.07
2018-06-13T04:11:20.805Z,9.43
2018-06-13T04:13:50.569Z,7.47
2018-06-13T04:16:20.407Z,6.33
2018-06-13T04:18:49.701Z,6.87
2018-06-13T04:21:19.444Z,12.73
2018-06-13T04:23:49.032Z,7.17
2018-06-13T04:26:18.691Z,9.33
2018-06-13T04:28:48.360Z,8.70
2018-06-13T04:31:17.981Z,8.33
2018-06-13T04:33:47.775Z,10.47
2018-06-13T04:36:17.381Z,8.47
2018-06-13T04:38:48.031Z,8.23
2018-06-13T04:41:17.757Z,7.27
2018-06-13T04:43:47.399Z,12.47
2018-06-13T04:46:16.962Z,8.70
2018-06-13T04:48:46.971Z,8.83
2018-06-13T04:51:16.751Z,9.00
2018-06-13T04:53:46.826Z,8.90
2018-06-13T04:56:16.354Z,6.00
2018-06-13T04:58:46.397Z,7.67
2018-06-13T05:01:16.091Z,10.00
2018-06-13T05:03:45.985Z,7.10
2018-06-13T05:06:17.856Z,9.13
2018-06-13T05:08:47.907Z,8.97
2018-06-13T05:11:17.571Z,6.40
2018-06-13T05:13:47.596Z,6.13
2018-06-13T05:16:17.574Z,9.37
2018-06-13T05:18:47.920Z,7.30
2018-06-13T05:21:18.105Z,6.47
2018-06-13T05:23:48.255Z,5.10
2018-06-13T05:26:17.898Z,6.33
2018-06-13T05:28:47.902Z,5.10
2018-06-13T05:31:17.484Z,7.27
2018-06-13T05:33:47.216Z,10.17
2018-06-13T05:36:16.920Z,6.87
2018-06-13T05:38:46.895Z,5.23
2018-06-13T05:41:16.709Z,6.40
2018-06-13T05:43:46.318Z,4.30
2018-06-13T05:46:16.002Z,8.10
2018-06-13T05:48:45.668Z,6.40
2018-06-13T05:51:15.402Z,6.00
2018-06-13T05:53:45.069Z,4.07
2018-06-13T05:56:14.695Z,9.43
2018-06-13T05:58:44.349Z,9.60
2018-06-13T06:01:14.135Z,8.07
2018-06-13T06:03:43.709Z,7.60
2018-06-13T06:06:13.565Z,7.00
2018-06-13T06:08:43.410Z,7.17
2018-06-13T06:11:12.721Z,7.63
2018-06-13T06:13:42.333Z,7.33
2018-06-13T06:16:12.750Z,5.57
2018-06-13T06:18:42.365Z,6.57
2018-06-13T06:21:12.029Z,7.10
2018-06-13T06:23:41.699Z,7.40
2018-06-13T06:26:11.410Z,4.57
2018-06-13T06:28:41.540Z,3.87
2018-06-13T06:31:11.119Z,8.13
2018-06-13T06:33:41.001Z,10.47
2018-06-13T06:36:10.751Z,10.77
2018-06-13T06:38:40.433Z,6.17
2018-06-13T06:41:10.094Z,6.43
2018-06-13T06:43:39.782Z,5.47
2018-06-13T06:46:09.436Z,8.60
2018-06-13T06:48:39.131Z,5.13
2018-06-13T06:51:08.795Z,4.87
2018-06-13T06:53:38.397Z,7.03
2018-06-13T06:56:07.994Z,3.47
2018-06-13T06:58:38.149Z,6.73
2018-06-13T07:01:07.824Z,6.27
2018-06-13T07:03:37.587Z,11.27
2018-06-13T07:06:07.226Z,10.10
2018-06-13T07:08:36.863Z,6.83
2018-06-13T07:11:06.573Z,6.23
2018-06-13T07:13:36.176Z,7.83
2018-06-13T07:16:05.849Z,6.97
2018-06-13T07:18:35.536Z,8.03
2018-06-13T07:21:09.372Z,14.60
2018-06-13T07:23:39.142Z,7.90
2018-06-13T07:26:08.856Z,8.50
2018-06-13T07:28:38.592Z,7.83
2018-06-13T07:31:08.200Z,9.37
2018-06-13T07:33:37.880Z,7.27
2018-06-13T07:36:12.245Z,6.93
2018-06-13T07:38:41.870Z,8.50
2018-06-13T07:41:11.460Z,7.40
2018-06-13T07:43:41.038Z,5.73
2018-06-13T07:46:11.073Z,5.07
2018-06-13T07:48:40.667Z,8.23
2018-06-13T07:51:10.294Z,5.23
2018-06-13T07:53:39.893Z,4.07
2018-06-13T07:56:09.521Z,8.43
2018-06-13T07:58:39.150Z,8.07
2018-06-13T08:01:08.921Z,8.20
2018-06-13T08:03:38.544Z,7.33
2018-06-13T08:06:08.504Z,5.20
2018-06-13T08:08:38.108Z,6.47
2018-06-13T08:11:07.794Z,9.00
2018-06-13T08:13:37.548Z,5.07
2018-06-13T08:16:07.404Z,7.17
2018-06-13T08:18:37.509Z,7.77
2018-06-13T08:21:07.348Z,5.53
2018-06-13T08:23:37.113Z,8.17
2018-06-13T08:26:06.797Z,4.83
2018-06-13T08:28:36.488Z,6.60
2018-06-13T08:31:06.575Z,11.70
2018-06-13T08:33:36.352Z,4.07
2018-06-13T08:36:06.081Z,4.63
2018-06-13T08:38:35.774Z,5.47
2018-06-13T08:41:05.133Z,5.87
2018-06-13T08:43:34.890Z,4.37
2018-06-13T08:46:04.740Z,8.50
2018-06-13T08:48:34.789Z,8.47
2018-06-13T08:51:04.411Z,5.07
2018-06-13T08:53:34.100Z,8.37
2018-06-13T08:56:03.782Z,6.60
2018-06-13T08:58:33.519Z,4.53
2018-06-13T09:01:03.199Z,7.10
2018-06-13T09:03:32.777Z,5.73
2018-06-13T09:06:02.383Z,4.70
2018-06-13T09:08:32.012Z,6.57
2018-06-13T09:11:01.723Z,8.70
2018-06-13T09:13:31.425Z,6.10
2018-06-13T09:16:01.260Z,6.90
2018-06-13T09:18:30.897Z,5.17
2018-06-13T09:21:00.495Z,6.10
2018-06-13T09:23:30.156Z,6.97
2018-06-13T09:25:59.790Z,4.97
2018-06-13T09:28:29.428Z,7.80
2018-06-13T09:30:59.116Z,5.90
2018-06-13T09:33:28.805Z,5.00
2018-06-13T09:35:58.449Z,5.70
2018-06-13T09:38:28.185Z,5.23
2018-06-13T09:40:58.106Z,3.80
2018-06-13T09:43:27.788Z,7.40
2018-06-13T09:46:03.397Z,4.20
2018-06-13T09:48:27.149Z,4.07
2018-06-13T09:50:56.821Z,4.60
2018-06-13T09:53:26.500Z,4.53
2018-06-13T09:55:56.203Z,8.70
2018-06-13T09:58:25.942Z,8.70
2018-06-13T10:01:00.624Z,7.53
2018-06-13T10:03:30.273Z,6.13
2018-06-13T10:06:00.003Z,8.80
2018-06-13T10:08:29.791Z,5.97
2018-06-13T10:10:59.398Z,8.73
2018-06-13T10:13:29.221Z,6.50
2018-06-13T10:15:58.948Z,6.40
2018-06-13T10:18:28.691Z,7.07
2018-06-13T10:20:58.446Z,4.27
2018-06-13T10:23:28.502Z,8.37
2018-06-13T10:25:58.180Z,7.80
2018-06-13T10:28:27.911Z,8.53
2018-06-13T10:30:57.595Z,6.10
2018-06-13T10:33:27.598Z,8.73
2018-06-13T10:35:57.231Z,7.23
2018-06-13T10:38:26.973Z,6.77
2018-06-13T10:40:56.647Z,6.13
2018-06-13T10:43:26.412Z,6.13
2018-06-13T10:45:56.120Z,9.47
2018-06-13T10:48:26.028Z,7.20
2018-06-13T10:50:55.692Z,7.37
2018-06-13T10:53:25.301Z,8.00
2018-06-13T10:55:54.909Z,7.37
2018-06-13T10:58:24.736Z,6.30
2018-06-13T11:00:54.345Z,4.27
2018-06-13T11:03:24.053Z,4.03
2018-06-13T11:05:53.803Z,4.50
2018-06-13T11:08:23.419Z,7.50
2018-06-13T11:10:53.026Z,6.07
2018-06-13T11:13:22.662Z,7.80
2018-06-13T11:15:52.350Z,5.93
2018-06-13T11:18:21.985Z,6.33
2018-06-13T11:20:51.685Z,7.77
2018-06-13T11:23:21.521Z,4.17
2018-06-13T11:25:51.171Z,6.87
2018-06-13T11:28:21.076Z,7.13
2018-06-13T11:30:50.797Z,11.97
2018-06-13T11:33:20.449Z,8.80
2018-06-13T11:35:50.103Z,10.70
2018-06-13T11:38:19.792Z,8.33
2018-06-13T11:40:49.596Z,7.40
2018-06-13T11:43:19.229Z,6.87
2018-06-13T11:45:48.834Z,7.57
2018-06-13T11:48:18.725Z,7.00
2018-06-13T11:50:48.363Z,7.10
2018-06-13T11:53:17.972Z,8.40
2018-06-13T11:55:47.569Z,3.60
2018-06-13T11:58:17.209Z,4.57
2018-06-13T12:00:46.824Z,5.50
2018-06-13T12:03:16.500Z,4.83
2018-06-13T12:05:46.236Z,5.57
2018-06-13T12:08:15.992Z,3.80
2018-06-13T12:10:45.889Z,5.27
2018-06-13T12:13:15.469Z,3.60
2018-06-13T12:15:45.146Z,3.37
2018-06-13T12:18:14.906Z,3.40
2018-06-13T12:20:44.534Z,3.37
2018-06-13T12:23:14.122Z,6.80
2018-06-13T12:25:43.705Z,3.77
2018-06-13T12:28:13.320Z,6.33
2018-06-13T12:30:42.903Z,4.87
2018-06-13T12:33:12.464Z,5.03
2018-06-13T12:35:42.190Z,5.83
2018-06-13T12:38:11.946Z,5.97
2018-06-13T12:40:41.641Z,6.70
2018-06-13T12:43:11.416Z,7.90
2018-06-13T12:45:41.072Z,9.47
2018-06-13T12:48:12.106Z,8.37
2018-06-13T12:50:41.937Z,6.07
2018-06-13T12:53:11.713Z,5.57
2018-06-13T12:55:41.345Z,4.87
2018-06-13T12:58:11.142Z,7.93
2018-06-13T13:00:40.855Z,4.97
2018-06-13T13:03:10.847Z,6.47
2018-06-13T13:05:40.581Z,7.77
2018-06-13T13:08:10.395Z,6.77
2018-06-13T13:10:40.278Z,6.53
2018-06-13T13:13:10.168Z,4.17
2018-06-13T13:15:40.291Z,4.00
2018-06-13T13:18:09.935Z,4.73
2018-06-13T13:20:39.667Z,4.37
2018-06-13T13:23:09.404Z,7.10
2018-06-13T13:25:39.460Z,6.07
2018-06-13T13:28:09.062Z,7.37
2018-06-13T13:30:45.501Z,4.57
2018-06-13T13:33:15.077Z,3.60
2018-06-13T13:35:44.744Z,7.73
2018-06-13T13:38:14.357Z,4.47
2018-06-13T13:40:44.969Z,7.97
2018-06-13T13:43:14.707Z,7.60
2018-06-13T13:45:44.637Z,10.10
2018-06-13T13:48:14.307Z,7.10
2018-06-13T13:50:43.900Z,10.00
2018-06-13T13:53:13.543Z,5.70
2018-06-13T13:55:43.214Z,6.93
2018-06-13T13:58:12.861Z,4.67
2018-06-13T14:00:42.485Z,5.50
2018-06-13T14:03:12.033Z,4.73
2018-06-13T14:05:41.661Z,33.67
2018-06-13T14:08:10.997Z,39.43
2018-06-13T14:10:40.632Z,22.00
2018-06-13T14:13:10.380Z,18.73
2018-06-13T14:15:40.135Z,24.90
2018-06-13T14:18:09.860Z,41.40
2018-06-13T14:20:42.396Z,37.07
2018-06-13T14:23:12.028Z,37.13
2018-06-13T14:25:41.728Z,54.83
2018-06-13T14:28:11.385Z,37.20
2018-06-13T14:30:40.957Z,42.73
2018-06-13T14:33:10.744Z,12.83
2018-06-13T14:35:40.414Z,5.07
2018-06-13T14:38:10.124Z,11.97
2018-06-13T14:40:39.785Z,7.53
2018-06-13T14:43:09.446Z,8.40
2018-06-13T14:45:39.279Z,10.47
2018-06-13T14:48:09.069Z,6.37
2018-06-13T14:50:38.866Z,7.33
2018-06-13T14:53:09.349Z,4.90
2018-06-13T14:55:47.265Z,7.97
2018-06-13T14:58:16.898Z,7.43
2018-06-13T15:00:46.588Z,4.87
2018-06-13T15:03:16.276Z,6.20
2018-06-13T15:05:45.946Z,4.50
2018-06-13T15:08:15.743Z,6.60
2018-06-13T15:10:45.516Z,5.17
2018-06-13T15:13:15.669Z,9.97
2018-06-13T15:15:45.519Z,6.53
2018-06-13T15:18:15.232Z,4.87
2018-06-13T15:20:44.981Z,4.77
2018-06-13T15:23:14.702Z,8.17
2018-06-13T15:25:44.339Z,4.73
2018-06-13T15:28:14.041Z,5.70
2018-06-13T15:30:43.663Z,6.20
2018-06-13T15:33:13.404Z,8.43
2018-06-13T15:35:43.104Z,6.07
2018-06-13T15:38:12.749Z,6.50
2018-06-13T15:40:42.505Z,5.80
2018-06-13T15:43:12.338Z,7.53
2018-06-13T15:45:42.264Z,6.80
2018-06-13T15:48:11.960Z,7.33
2018-06-13T15:50:41.693Z,4.17
2018-06-13T15:53:11.411Z,6.63
2018-06-13T15:55:41.234Z,5.30
2018-06-13T15:58:10.894Z,5.67
2018-06-13T16:00:40.694Z,7.07
2018-06-13T16:03:10.355Z,11.03
2018-06-13T16:05:40.130Z,4.27
2018-06-13T16:08:09.819Z,7.03
2018-06-13T16:10:39.538Z,8.33
2018-06-13T16:13:09.209Z,5.90
2018-06-13T16:15:38.858Z,6.30
2018-06-13T16:18:08.584Z,6.87
2018-06-13T16:20:38.273Z,6.10
2018-06-13T16:23:07.897Z,4.10
2018-06-13T16:25:38.470Z,5.60
2018-06-13T16:28:08.089Z,6.40
2018-06-13T16:30:37.941Z,6.20
2018-06-13T16:33:07.630Z,7.13
2018-06-13T16:35:37.300Z,5.90
2018-06-13T16:38:07.029Z,5.93
2018-06-13T16:40:37.018Z,6.07
2018-06-13T16:43:06.698Z,4.73
2018-06-13T16:45:36.281Z,5.43
2018-06-13T16:48:06.279Z,7.13
2018-06-13T16:50:50.979Z,4.70
2018-06-13T16:55:32.974Z,3.43
2018-06-13T16:58:02.657Z,4.77
2018-06-13T17:00:32.370Z,3.77
2018-06-13T17:03:02.009Z,4.97
2018-06-13T17:05:35.002Z,4.33
2018-06-13T17:08:04.922Z,5.13
2018-06-13T17:23:35.126Z,6.50
2018-06-13T17:26:04.909Z,4.80
2018-06-13T17:28:34.862Z,5.00
2018-06-13T17:31:04.609Z,4.83
2018-06-13T17:33:34.271Z,6.17
2018-06-13T17:36:03.921Z,4.87
2018-06-13T17:38:33.594Z,4.10
2018-06-13T17:41:03.445Z,5.53
2018-06-13T17:43:33.220Z,6.40
2018-06-13T17:46:02.926Z,7.67
2018-06-13T17:48:32.552Z,4.43
2018-06-13T17:51:02.344Z,5.80
2018-06-13T17:53:31.973Z,6.33
2018-06-13T17:56:01.797Z,5.50
2018-06-13T17:58:31.345Z,4.67
2018-06-13T18:01:00.954Z,4.73
2018-06-13T18:03:30.528Z,5.87
2018-06-13T18:06:00.250Z,6.37
2018-06-13T18:08:30.410Z,4.07
2018-06-13T18:11:00.053Z,6.87
2018-06-13T18:13:29.801Z,5.93
2018-06-13T18:15:59.704Z,6.67
2018-06-13T18:18:29.450Z,3.80
2018-06-13T18:20:58.993Z,5.90
2018-06-13T18:23:28.670Z,5.80
2018-06-13T18:25:58.401Z,4.37
2018-06-13T18:28:28.094Z,4.47
2018-06-13T18:30:57.753Z,4.13
2018-06-13T18:33:27.476Z,5.83
2018-06-13T18:35:57.117Z,5.23
2018-06-13T18:38:33.458Z,6.33
2018-06-13T18:41:03.210Z,3.67
2018-06-13T18:43:32.976Z,6.53
2018-06-13T18:46:02.738Z,5.43
2018-06-13T18:48:32.423Z,2.97
2018-06-13T18:51:02.104Z,3.60
2018-06-13T18:53:31.800Z,3.70
2018-06-13T18:56:01.474Z,5.20
2018-06-13T18:58:31.241Z,6.80
2018-06-13T19:01:01.005Z,9.03
2018-06-13T19:03:31.204Z,4.63
2018-06-13T19:06:01.036Z,3.47
2018-06-13T19:08:31.308Z,4.93
2018-06-13T19:11:01.207Z,7.33
2018-06-13T19:13:31.067Z,4.13
2018-06-13T19:16:00.889Z,4.47
2018-06-13T19:18:30.628Z,8.00
2018-06-13T19:21:00.377Z,5.40
2018-06-13T19:23:30.241Z,7.60
2018-06-13T19:25:59.902Z,8.77
2018-06-13T19:28:29.587Z,5.73
2018-06-13T19:30:59.303Z,3.93
2018-06-13T19:33:28.980Z,5.17
2018-06-13T19:35:58.622Z,7.53
2018-06-13T19:38:28.471Z,6.10
2018-06-13T19:40:58.156Z,4.07
2018-06-13T19:43:33.020Z,2.93
2018-06-13T19:46:02.776Z,5.00
2018-06-13T19:48:37.612Z,5.73
2018-06-13T19:51:07.222Z,5.93
2018-06-13T19:53:42.097Z,6.27
2018-06-13T19:56:12.840Z,6.28
2018-06-13T19:58:42.592Z,6.10
2018-06-13T20:01:13.399Z,12.87
2018-06-13T20:04:47.850Z,14.43
2018-06-13T20:07:22.609Z,10.93
2018-06-13T20:09:52.351Z,7.30
2018-06-13T20:12:43.042Z,5.60
2018-06-13T20:15:18.053Z,5.00
2018-06-13T20:20:00.344Z,5.60
2018-06-13T20:22:30.030Z,7.23
2018-06-13T20:25:04.639Z,5.90
2018-06-13T20:27:39.582Z,5.70
2018-06-13T20:30:14.532Z,4.73
2018-06-13T20:32:44.293Z,9.27
2018-06-13T20:35:14.283Z,6.80
2018-06-13T20:37:44.160Z,4.97
2018-06-13T20:40:13.883Z,7.17
2018-06-13T20:42:43.724Z,6.60
2018-06-13T20:45:13.571Z,6.03
2018-06-13T20:47:43.260Z,5.87
2018-06-13T20:50:12.965Z,8.60
2018-06-13T20:52:42.676Z,4.87
2018-06-13T20:55:12.326Z,7.47
2018-06-13T20:57:42.139Z,5.20
2018-06-13T21:00:11.800Z,10.70
2018-06-13T21:02:41.400Z,7.57
2018-06-13T21:05:11.164Z,6.57
2018-06-13T21:07:40.787Z,7.13
2018-06-13T21:10:10.560Z,4.63
2018-06-13T21:12:40.248Z,6.73
2018-06-13T21:15:10.037Z,6.87
2018-06-13T21:17:39.919Z,6.93
2018-06-13T21:20:09.674Z,9.13
2018-06-13T21:22:39.441Z,6.70
2018-06-13T21:25:09.287Z,10.23
2018-06-13T21:27:39.004Z,9.50
2018-06-13T21:30:08.954Z,4.97
2018-06-13T21:32:38.825Z,7.20
2018-06-13T21:35:08.735Z,8.00
2018-06-13T21:37:38.595Z,6.23
2018-06-13T21:40:08.437Z,7.10
2018-06-13T21:42:38.156Z,5.83
2018-06-13T21:45:07.894Z,6.73
2018-06-13T21:47:37.573Z,8.10
2018-06-13T21:50:07.367Z,5.37
2018-06-13T21:52:36.965Z,6.87
2018-06-13T21:55:06.668Z,7.47
2018-06-13T21:57:36.246Z,5.50
2018-06-13T22:00:09.697Z,8.53
2018-06-13T22:02:39.524Z,7.47
2018-06-13T22:05:09.282Z,6.20
2018-06-13T22:07:39.150Z,10.90
2018-06-13T22:10:08.949Z,8.43
2018-06-13T22:12:38.730Z,7.33
2018-06-13T22:15:12.644Z,6.47
2018-06-13T22:17:42.396Z,6.40
2018-06-13T22:20:12.100Z,5.07
2018-06-13T22:22:41.474Z,6.33
2018-06-13T22:25:11.294Z,7.40
2018-06-13T22:27:40.940Z,6.13
2018-06-13T22:30:10.444Z,6.03
2018-06-13T22:32:39.998Z,9.47
2018-06-13T22:35:09.898Z,7.47
2018-06-13T22:37:39.529Z,7.33
2018-06-13T22:40:09.325Z,8.20
2018-06-13T22:42:38.960Z,7.20
2018-06-13T22:45:08.601Z,7.20
2018-06-13T22:47:38.258Z,6.83
2018-06-13T22:50:07.940Z,10.43
2018-06-13T22:52:37.641Z,6.13
2018-06-13T22:55:07.469Z,6.60
2018-06-13T22:57:37.147Z,5.50
2018-06-13T23:00:06.936Z,5.73
2018-06-13T23:02:36.530Z,8.80
2018-06-13T23:05:06.269Z,6.80
2018-06-13T23:07:35.933Z,9.33
2018-06-13T23:10:05.685Z,6.20
2018-06-13T23:12:35.257Z,6.07
2018-06-13T23:15:05.248Z,4.63
2018-06-13T23:17:34.850Z,5.70
2018-06-13T23:20:04.471Z,6.60
2018-06-13T23:22:34.194Z,5.70
2018-06-13T23:25:03.768Z,5.67
2018-06-13T23:27:33.379Z,7.13
2018-06-13T23:30:03.036Z,6.90
2018-06-13T23:32:32.677Z,5.60
2018-06-13T23:35:02.318Z,5.47
2018-06-13T23:37:31.911Z,5.23
2018-06-13T23:40:01.625Z,5.17
2018-06-13T23:42:31.202Z,9.43
2018-06-13T23:45:00.781Z,7.93
2018-06-13T23:47:30.416Z,6.97
2018-06-13T23:50:00.036Z,10.53
2018-06-13T23:52:29.627Z,10.87
2018-06-13T23:54:59.304Z,9.67
2018-06-13T23:57:28.964Z,6.43
2018-06-13T23:59:58.242Z,9.57
